Terminal Aerodrome Forecast
Issued by NWS Charleston, WV

Home | Current Version | Previous Version | Text Only | Print | Product List | Glossary On
Versions: 1 2 3 4 5 6 7 8 9 10 11 12 13 14 15 16 17 18 19 20 21 22 23 24 25 26 27 28 29 30
000
FTUS41 KRLX 281000 AAB
TAFCRW
TAF AMD
KCRW 281043Z 2811/2906 29012G17KT P6SM BKN045
      TEMPO 2811/2813 4SM -SN BKN025
     FM281300 33008KT P6SM SCT035 BKN250
     FM290100 32004KT P6SM SKC=

USA.gov is the U.S. government's official web portal to all federal, state and local government web resources and services.